Republic, Kansas
Current Conditions -  °F | °C
As of 7:15 AM on Friday 31 Oct 2014 (Local Time) from KHJH Reporting Station
Clear Clear  
Wind Chill: 21°   Ceiling: Unl
Heat Index: 29°   Visibility: 10mi
Dew Point: 19°   Wind: 8mph
Humidity: 66%   Direction: 360°N
Pressure: 30.54"   Gusts: NA
Location:  39.92°N, 97.82°W
Report Text: KHJH 311215Z AUTO 36007KT 10SM CLR M02/M07 A3054 RMK AO2 T10171073
Loading
Personal Weather Stations






























Interactive Weather Map
Tropical Storm Tracking
New forecast layout! Learn more

10-Day Weather Forecast

Advertisements
Track Severe Weather on mobile